createdAt,value
2022-08-02T00:00:55.552Z,2.00
2022-08-02T00:03:23.382Z,1.95
2022-08-02T00:05:53.192Z,1.85
2022-08-02T00:08:21.176Z,2.10
2022-08-02T00:10:47.676Z,2.10
2022-08-02T00:13:14.182Z,2.53
2022-08-02T00:15:40.587Z,2.03
2022-08-02T00:18:07.095Z,2.40
2022-08-02T00:20:33.538Z,2.53
2022-08-02T00:23:00.046Z,2.42
2022-08-02T00:25:26.567Z,3.30
2022-08-02T00:27:52.995Z,2.67
2022-08-02T00:30:19.425Z,2.08
2022-08-02T00:32:45.796Z,2.35
2022-08-02T00:35:12.288Z,2.05
2022-08-02T00:37:40.772Z,3.00
2022-08-02T00:40:09.190Z,2.22
2022-08-02T00:42:35.736Z,2.53
2022-08-02T00:45:02.334Z,2.55
2022-08-02T00:47:28.751Z,3.22
2022-08-02T00:49:55.176Z,2.67
2022-08-02T00:52:23.592Z,2.42
2022-08-02T00:54:50.478Z,2.65
2022-08-02T00:57:17.065Z,2.40
2022-08-02T00:59:43.520Z,2.70
2022-08-02T01:02:10.429Z,2.60
2022-08-02T01:04:37.061Z,2.45
2022-08-02T01:07:11.965Z,2.80
2022-08-02T01:09:44.127Z,2.80
2022-08-02T01:12:11.466Z,2.97
2022-08-02T01:14:40.407Z,2.53
2022-08-02T01:17:12.406Z,2.85
2022-08-02T01:19:55.534Z,3.08
2022-08-02T01:23:01.076Z,2.65
2022-08-02T01:25:34.237Z,2.92
2022-08-02T01:28:31.710Z,2.33
2022-08-02T01:31:12.443Z,2.22
2022-08-02T01:33:54.579Z,2.53
2022-08-02T01:36:23.234Z,2.47
2022-08-02T01:38:54.652Z,2.50
2022-08-02T01:41:25.569Z,2.50
2022-08-02T01:43:56.746Z,2.75
2022-08-02T01:46:25.343Z,3.10
2022-08-02T01:48:54.677Z,2.72
2022-08-02T01:51:42.019Z,3.10
2022-08-02T01:54:12.392Z,2.67
2022-08-02T01:56:40.494Z,2.75
2022-08-02T01:59:10.600Z,2.72
2022-08-02T02:01:38.452Z,2.50
2022-08-02T02:04:07.871Z,2.50
2022-08-02T02:06:36.381Z,2.60
2022-08-02T02:09:04.605Z,3.35
2022-08-02T02:12:11.939Z,2.92
2022-08-02T02:14:20.955Z,2.80
2022-08-02T02:16:49.483Z,2.85
2022-08-02T02:19:21.359Z,2.90
2022-08-02T02:21:49.228Z,2.90
2022-08-02T02:24:15.675Z,2.92
2022-08-02T02:26:49.294Z,2.70
2022-08-02T02:29:21.898Z,3.00
2022-08-02T02:31:50.469Z,3.30
2022-08-02T02:34:25.442Z,3.67
2022-08-02T02:36:52.632Z,3.63
2022-08-02T02:39:22.703Z,3.00
2022-08-02T02:41:51.421Z,2.83
2022-08-02T02:44:20.535Z,3.10
2022-08-02T02:46:52.598Z,2.70
2022-08-02T02:49:21.309Z,3.03
2022-08-02T02:51:48.460Z,3.05
2022-08-02T02:54:30.419Z,3.10
2022-08-02T02:57:02.406Z,3.43
2022-08-02T02:59:29.453Z,2.83
2022-08-02T03:01:58.085Z,2.90
2022-08-02T03:04:56.453Z,2.70
2022-08-02T03:07:14.587Z,2.45
2022-08-02T03:09:41.025Z,2.07
2022-08-02T03:12:09.689Z,2.30
2022-08-02T03:14:42.793Z,2.70
2022-08-02T03:17:09.315Z,2.53
2022-08-02T03:19:35.769Z,2.08
2022-08-02T03:22:02.223Z,2.30
2022-08-02T03:24:28.690Z,2.65
2022-08-02T03:26:55.792Z,2.80
2022-08-02T03:29:22.189Z,2.92
2022-08-02T03:31:49.019Z,2.60
2022-08-02T03:34:15.799Z,3.10
2022-08-02T03:36:43.333Z,2.85
2022-08-02T03:39:12.524Z,2.10
2022-08-02T03:41:39.744Z,2.30
2022-08-02T03:44:07.863Z,2.83
2022-08-02T03:46:39.155Z,2.63
2022-08-02T03:49:07.831Z,2.40
2022-08-02T03:51:35.757Z,2.63
2022-08-02T03:54:03.600Z,2.42
2022-08-02T03:56:30.282Z,2.53
2022-08-02T03:59:07.891Z,2.40
2022-08-02T04:01:34.256Z,2.65
2022-08-02T04:04:00.683Z,2.63
2022-08-02T04:06:28.524Z,2.42
2022-08-02T04:08:55.109Z,2.22
2022-08-02T04:11:33.375Z,2.50
2022-08-02T04:14:02.936Z,2.67
2022-08-02T04:16:42.282Z,2.70
2022-08-02T04:19:15.114Z,2.50
2022-08-02T04:21:50.195Z,2.70
2022-08-02T04:24:24.625Z,2.67
2022-08-02T04:26:53.736Z,2.58
2022-08-02T04:29:21.128Z,3.03
2022-08-02T04:31:48.360Z,2.42
2022-08-02T04:34:15.760Z,2.58
2022-08-02T04:36:43.340Z,2.43
2022-08-02T04:39:11.319Z,2.40
2022-08-02T04:41:43.973Z,2.40
2022-08-02T04:44:11.782Z,2.50
2022-08-02T04:46:39.299Z,2.47
2022-08-02T04:49:06.223Z,2.07
2022-08-02T04:51:38.385Z,2.90
2022-08-02T04:54:09.399Z,2.50
2022-08-02T04:56:37.143Z,2.55
2022-08-02T04:59:03.572Z,2.42
2022-08-02T05:01:30.304Z,2.47
2022-08-02T05:03:56.688Z,2.13
2022-08-02T05:06:23.124Z,2.63
2022-08-02T05:08:52.706Z,2.42
2022-08-02T05:11:20.426Z,2.30
2022-08-02T05:13:58.658Z,2.20
2022-08-02T05:16:31.612Z,2.70
2022-08-02T05:18:59.114Z,2.38
2022-08-02T05:21:25.617Z,2.20
2022-08-02T05:23:52.128Z,2.13
2022-08-02T05:26:18.659Z,2.70
2022-08-02T05:28:45.081Z,2.25
2022-08-02T05:31:13.048Z,1.98
2022-08-02T05:33:40.230Z,2.15
2022-08-02T05:36:07.107Z,2.20
2022-08-02T05:38:37.109Z,2.43
2022-08-02T05:41:04.242Z,2.10
2022-08-02T05:43:30.852Z,2.22
2022-08-02T05:45:57.322Z,2.08
2022-08-02T05:48:27.629Z,2.28
2022-08-02T05:51:19.385Z,2.30
2022-08-02T05:53:50.434Z,2.10
2022-08-02T05:56:26.139Z,2.05
2022-08-02T05:59:09.851Z,2.30
2022-08-02T06:01:40.629Z,2.25
2022-08-02T06:04:09.255Z,2.73
2022-08-02T06:06:37.032Z,2.63
2022-08-02T06:09:16.883Z,2.67
2022-08-02T06:12:01.962Z,2.47
2022-08-02T06:14:32.636Z,2.25
2022-08-02T06:17:05.785Z,2.40
2022-08-02T06:19:36.599Z,2.63
2022-08-02T06:22:41.869Z,2.30
2022-08-02T06:25:05.493Z,2.60
2022-08-02T06:27:33.240Z,2.40
2022-08-02T06:30:00.047Z,2.83
2022-08-02T06:32:27.366Z,2.25
2022-08-02T06:34:54.269Z,2.63
2022-08-02T06:37:28.020Z,2.63
2022-08-02T06:40:06.717Z,3.03
2022-08-02T06:43:06.989Z,2.87
2022-08-02T06:45:36.478Z,2.85
2022-08-02T06:48:03.634Z,2.92
2022-08-02T06:50:30.399Z,2.42
2022-08-02T06:52:57.128Z,3.30
2022-08-02T06:55:23.521Z,3.17
2022-08-02T06:57:49.964Z,3.25
2022-08-02T07:00:20.207Z,3.58
2022-08-02T07:02:46.620Z,3.47
2022-08-02T07:05:13.640Z,4.40
2022-08-02T07:07:40.266Z,4.40
2022-08-02T07:10:06.952Z,4.53
2022-08-02T07:12:34.353Z,4.13
2022-08-02T07:15:02.477Z,4.60
2022-08-02T07:17:29.876Z,4.30
2022-08-02T07:19:56.906Z,4.70
2022-08-02T07:22:24.472Z,4.40
2022-08-02T07:24:51.515Z,5.90
2022-08-02T07:27:18.469Z,4.45
2022-08-02T07:29:47.093Z,5.10
2022-08-02T07:32:21.174Z,5.17
2022-08-02T07:34:51.320Z,5.05
2022-08-02T07:37:35.358Z,5.50
2022-08-02T07:40:12.556Z,5.78
2022-08-02T07:42:41.138Z,5.53
2022-08-02T07:45:07.983Z,5.20
2022-08-02T07:47:40.589Z,6.18
2022-08-02T07:50:08.645Z,4.93
2022-08-02T07:52:35.279Z,5.93
2022-08-02T07:55:01.811Z,7.38
2022-08-02T07:57:28.163Z,5.93
2022-08-02T07:59:54.595Z,7.13
2022-08-02T08:02:21.016Z,6.90
2022-08-02T08:04:47.430Z,6.90
2022-08-02T08:07:13.799Z,6.00
2022-08-02T08:09:42.042Z,7.00
2022-08-02T08:12:09.660Z,6.57
2022-08-02T08:14:36.927Z,7.47
2022-08-02T08:17:03.806Z,7.10
2022-08-02T08:19:50.456Z,7.30
2022-08-02T08:22:16.772Z,7.20
2022-08-02T08:24:43.176Z,6.38
2022-08-02T08:27:14.410Z,6.80
2022-08-02T08:29:42.337Z,5.47
2022-08-02T08:32:12.836Z,5.20
2022-08-02T08:34:42.607Z,5.10
2022-08-02T08:37:09.187Z,4.03
2022-08-02T08:39:35.621Z,3.97
2022-08-02T08:42:22.100Z,3.53
2022-08-02T08:44:48.497Z,3.10
2022-08-02T08:47:15.013Z,3.23
2022-08-02T08:49:52.824Z,3.10
2022-08-02T08:52:23.031Z,2.70
2022-08-02T08:54:50.608Z,2.75
2022-08-02T08:57:19.241Z,2.50
2022-08-02T08:59:45.936Z,3.00
2022-08-02T09:02:19.718Z,2.40
2022-08-02T09:04:54.409Z,2.92
2022-08-02T09:07:21.708Z,2.95
2022-08-02T09:09:48.146Z,2.63
2022-08-02T09:12:19.755Z,2.83
2022-08-02T09:14:50.152Z,2.75
2022-08-02T09:17:18.461Z,3.10
2022-08-02T09:19:46.337Z,2.58
2022-08-02T09:22:15.428Z,2.83
2022-08-02T09:24:51.473Z,3.63
2022-08-02T09:27:20.636Z,3.63
2022-08-02T09:32:46.445Z,3.50
2022-08-02T09:35:14.300Z,3.80
2022-08-02T09:37:41.394Z,3.60
2022-08-02T09:40:10.720Z,3.65
2022-08-02T09:42:37.164Z,3.28
2022-08-02T09:45:03.903Z,3.45
2022-08-02T09:47:31.268Z,4.00
2022-08-02T09:49:58.420Z,3.50
2022-08-02T09:52:43.238Z,3.47
2022-08-02T09:55:11.279Z,3.88
2022-08-02T09:57:38.557Z,4.68
2022-08-02T10:00:14.089Z,4.82
2022-08-02T10:03:06.303Z,4.37
2022-08-02T10:05:55.954Z,4.50
2022-08-02T10:08:29.646Z,4.47
2022-08-02T10:11:03.116Z,4.60
2022-08-02T10:13:38.697Z,4.18
2022-08-02T10:16:08.719Z,4.50
2022-08-02T10:18:39.323Z,3.95
2022-08-02T10:21:33.564Z,3.35
2022-08-02T10:24:12.020Z,4.22
2022-08-02T10:26:40.591Z,3.63
2022-08-02T10:29:09.534Z,4.47
2022-08-02T10:31:43.668Z,4.10
2022-08-02T10:34:12.639Z,3.55
2022-08-02T10:36:41.597Z,3.55
2022-08-02T10:39:08.926Z,4.00
2022-08-02T10:41:47.532Z,3.97
2022-08-02T10:44:31.741Z,3.25
2022-08-02T10:47:18.586Z,2.92
2022-08-02T10:49:53.242Z,3.00
2022-08-02T10:52:21.833Z,2.65
2022-08-02T10:54:57.011Z,3.37
2022-08-02T10:57:28.282Z,2.85
2022-08-02T10:59:58.283Z,2.40
2022-08-02T11:02:43.082Z,2.22
2022-08-02T11:05:17.168Z,2.05
2022-08-02T11:07:47.874Z,2.30
2022-08-02T11:10:30.198Z,2.30
2022-08-02T11:13:10.762Z,2.08
2022-08-02T11:16:09.136Z,2.30
2022-08-02T11:18:44.052Z,1.92
2022-08-02T11:21:20.458Z,1.70
2022-08-02T11:23:46.886Z,1.90
2022-08-02T11:26:31.593Z,2.10
2022-08-02T11:29:03.873Z,1.60
2022-08-02T11:31:39.494Z,1.75
2022-08-02T11:34:09.576Z,1.40
2022-08-02T11:36:48.124Z,1.52
2022-08-02T11:39:17.558Z,1.30
2022-08-02T11:41:53.157Z,1.20
2022-08-02T11:44:20.371Z,1.40
2022-08-02T11:47:00.921Z,1.27
2022-08-02T11:49:29.129Z,1.20
2022-08-02T11:52:05.353Z,1.52
2022-08-02T11:54:40.077Z,1.30
2022-08-02T11:57:21.430Z,1.27
2022-08-02T11:59:50.391Z,1.50
2022-08-02T12:02:17.575Z,1.00
2022-08-02T12:05:02.084Z,1.50
2022-08-02T12:07:34.630Z,1.50
2022-08-02T12:10:16.931Z,1.55
2022-08-02T12:12:49.078Z,1.97
2022-08-02T12:15:30.162Z,1.73
2022-08-02T12:18:16.547Z,1.48
2022-08-02T12:20:43.976Z,1.50
2022-08-02T12:23:10.508Z,1.40
2022-08-02T12:25:37.270Z,1.60
2022-08-02T12:28:25.383Z,1.40
2022-08-02T12:30:59.175Z,1.63
2022-08-02T12:33:28.414Z,1.65
2022-08-02T12:35:55.731Z,1.35
2022-08-02T12:38:22.414Z,1.40
2022-08-02T12:40:49.362Z,1.40
2022-08-02T12:43:24.231Z,1.40
2022-08-02T12:45:56.491Z,1.50
2022-08-02T12:48:37.677Z,1.70
2022-08-02T12:51:24.996Z,1.57
2022-08-02T12:54:17.891Z,1.80
2022-08-02T12:56:45.188Z,2.38
2022-08-02T12:59:11.661Z,1.52
2022-08-02T13:01:38.367Z,1.60
2022-08-02T13:04:11.628Z,1.50
2022-08-02T13:06:44.139Z,1.60
2022-08-02T13:09:15.770Z,1.60
2022-08-02T13:11:43.856Z,1.70
2022-08-02T13:14:11.633Z,1.80
2022-08-02T13:16:38.069Z,1.40
2022-08-02T13:19:04.602Z,1.52
2022-08-02T13:21:40.011Z,1.63
2022-08-02T13:24:38.788Z,1.50
2022-08-02T13:27:07.927Z,1.45
2022-08-02T13:29:36.436Z,1.50
2022-08-02T13:32:03.010Z,1.98
2022-08-02T13:34:29.531Z,1.90
2022-08-02T13:36:55.986Z,1.50
2022-08-02T13:39:22.347Z,1.65
2022-08-02T13:41:48.812Z,1.07
2022-08-02T13:44:15.353Z,1.38
2022-08-02T13:46:45.295Z,1.42
2022-08-02T13:49:19.470Z,1.63
2022-08-02T13:51:47.784Z,1.60
2022-08-02T13:54:15.377Z,1.20
2022-08-02T13:56:41.807Z,1.40
2022-08-02T13:59:54.585Z,1.63
2022-08-02T14:01:56.446Z,1.48
2022-08-02T14:04:23.778Z,1.77
2022-08-02T14:06:50.937Z,1.50
2022-08-02T14:09:17.736Z,1.45
2022-08-02T14:11:45.348Z,1.50
2022-08-02T14:14:15.846Z,1.40
2022-08-02T14:16:43.426Z,1.38
2022-08-02T14:19:15.590Z,1.50
2022-08-02T14:21:46.493Z,1.33
2022-08-02T14:24:14.961Z,1.50
2022-08-02T14:26:41.360Z,2.00
2022-08-02T14:29:08.180Z,1.75
2022-08-02T14:31:34.555Z,1.60
2022-08-02T14:34:01.075Z,1.45
2022-08-02T14:36:28.192Z,1.27
2022-08-02T14:38:55.628Z,1.42
2022-08-02T14:41:22.533Z,1.75
2022-08-02T14:44:04.328Z,1.57
2022-08-02T14:46:37.741Z,1.67
2022-08-02T14:49:05.270Z,1.60
2022-08-02T14:51:32.000Z,1.60
2022-08-02T14:54:03.014Z,1.60
2022-08-02T14:56:30.574Z,1.47
2022-08-02T14:58:57.287Z,1.90
2022-08-02T15:01:26.153Z,1.40
2022-08-02T15:03:53.508Z,1.58
2022-08-02T15:06:20.149Z,1.70
2022-08-02T15:08:46.557Z,1.43
2022-08-02T15:11:13.028Z,1.38
2022-08-02T15:13:42.363Z,1.83
2022-08-02T15:16:09.336Z,1.63
2022-08-02T15:18:35.836Z,1.50
2022-08-02T15:21:18.102Z,1.60
2022-08-02T15:23:48.778Z,1.55
2022-08-02T15:26:15.282Z,1.52
2022-08-02T15:28:41.709Z,1.30
2022-08-02T15:31:08.112Z,1.20
2022-08-02T15:33:34.737Z,1.30
2022-08-02T15:36:01.377Z,1.40
2022-08-02T15:38:27.918Z,2.30
2022-08-02T15:40:54.326Z,5.32
2022-08-02T15:43:21.469Z,1.73
2022-08-02T15:45:47.857Z,1.30
2022-08-02T15:48:14.498Z,1.20
2022-08-02T15:50:40.892Z,1.70
2022-08-02T15:53:09.678Z,1.30
2022-08-02T15:55:52.074Z,1.30
2022-08-02T15:58:22.788Z,1.47
2022-08-02T16:00:49.997Z,1.42
2022-08-02T16:03:16.392Z,2.90
2022-08-02T16:05:42.945Z,2.25
2022-08-02T16:08:09.483Z,1.30
2022-08-02T16:10:36.050Z,1.40
2022-08-02T16:13:21.409Z,1.40
2022-08-02T16:15:47.870Z,1.40
2022-08-02T16:18:14.271Z,1.27
2022-08-02T16:20:40.908Z,1.20
2022-08-02T16:23:07.383Z,1.23
2022-08-02T16:25:36.592Z,1.63
2022-08-02T16:28:07.788Z,1.30
2022-08-02T16:30:34.900Z,1.65
2022-08-02T16:33:01.696Z,1.30
2022-08-02T16:35:28.249Z,1.70
2022-08-02T16:37:54.836Z,1.35
2022-08-02T16:40:22.182Z,1.15
2022-08-02T16:42:50.734Z,1.25
2022-08-02T16:45:20.669Z,1.30
2022-08-02T16:47:55.937Z,1.40
2022-08-02T16:50:28.652Z,1.40
2022-08-02T16:52:57.295Z,1.60
2022-08-02T16:55:24.788Z,3.38
2022-08-02T16:57:51.261Z,1.60
2022-08-02T17:00:23.486Z,1.33
2022-08-02T17:02:50.019Z,1.50
2022-08-02T17:05:16.800Z,1.58
2022-08-02T17:08:15.651Z,1.90
2022-08-02T17:10:31.134Z,1.48
2022-08-02T17:12:58.473Z,1.40
2022-08-02T17:16:08.268Z,1.30
2022-08-02T17:18:26.546Z,1.58
2022-08-02T17:20:54.078Z,1.60
2022-08-02T17:23:20.461Z,1.40
2022-08-02T17:25:52.344Z,1.20
2022-08-02T17:28:19.144Z,1.40
2022-08-02T17:30:45.658Z,1.60
2022-08-02T17:33:12.079Z,1.30
2022-08-02T17:35:43.310Z,1.40
2022-08-02T17:38:26.592Z,1.37
2022-08-02T17:40:55.210Z,1.48
2022-08-02T17:43:21.711Z,1.50
2022-08-02T17:46:01.023Z,1.60
2022-08-02T17:48:54.772Z,1.60
2022-08-02T17:51:33.080Z,1.50
2022-08-02T17:54:11.373Z,1.50
2022-08-02T17:56:42.455Z,1.50
2022-08-02T17:59:20.824Z,1.75
2022-08-02T18:01:52.912Z,1.65
2022-08-02T18:04:20.456Z,1.70
2022-08-02T18:06:57.906Z,1.63
2022-08-02T18:09:28.096Z,1.50
2022-08-02T18:11:55.634Z,1.50
2022-08-02T18:14:22.548Z,2.05
2022-08-02T18:16:51.045Z,1.47
2022-08-02T18:19:21.249Z,1.50
2022-08-02T18:21:47.990Z,1.63
2022-08-02T18:24:19.260Z,1.88
2022-08-02T18:26:50.564Z,1.40
2022-08-02T18:29:17.018Z,1.60
2022-08-02T18:31:50.880Z,1.30
2022-08-02T18:34:19.317Z,1.20
2022-08-02T18:36:50.747Z,1.00
2022-08-02T18:39:17.180Z,1.38
2022-08-02T18:41:48.044Z,1.20
2022-08-02T18:44:16.867Z,1.10
2022-08-02T18:46:45.422Z,1.10
2022-08-02T18:49:15.713Z,1.00
2022-08-02T18:51:42.989Z,1.27
2022-08-02T18:54:09.447Z,1.10
2022-08-02T18:56:39.162Z,1.10
2022-08-02T18:59:06.304Z,1.25
2022-08-02T19:01:43.588Z,0.80
2022-08-02T19:04:15.276Z,1.25
2022-08-02T19:06:53.777Z,0.93
2022-08-02T19:09:20.165Z,1.10
2022-08-02T19:11:50.417Z,1.30
2022-08-02T19:14:27.822Z,1.38
2022-08-02T19:16:56.753Z,1.05
2022-08-02T19:19:28.722Z,1.30
2022-08-02T19:22:17.740Z,1.00
2022-08-02T19:24:43.832Z,1.65
2022-08-02T19:27:14.180Z,1.70
2022-08-02T19:29:43.227Z,1.60
2022-08-02T19:35:19.644Z,1.13
2022-08-02T19:37:50.951Z,1.38
2022-08-02T19:40:23.867Z,1.60
2022-08-02T19:44:26.590Z,1.10
2022-08-02T19:45:48.903Z,1.20
2022-08-02T19:48:17.256Z,1.23
2022-08-02T19:50:44.212Z,1.27
2022-08-02T19:53:17.107Z,1.00
2022-08-02T19:56:00.909Z,0.90
2022-08-02T19:58:29.195Z,0.90
2022-08-02T20:00:56.939Z,1.23
2022-08-02T20:03:39.942Z,0.90
2022-08-02T20:06:13.466Z,1.02
2022-08-02T20:08:40.419Z,1.20
2022-08-02T20:11:19.243Z,0.97
2022-08-02T20:13:47.107Z,1.00
2022-08-02T20:16:17.883Z,1.27
2022-08-02T20:18:56.908Z,0.90
2022-08-02T20:21:34.097Z,1.02
2022-08-02T20:24:06.016Z,1.10
2022-08-02T20:26:32.655Z,1.20
2022-08-02T20:29:02.947Z,1.17
2022-08-02T20:31:29.850Z,0.85
2022-08-02T20:33:58.986Z,1.52
2022-08-02T20:36:26.496Z,0.73
2022-08-02T20:38:54.450Z,0.90
2022-08-02T20:41:37.271Z,1.00
2022-08-02T20:44:15.405Z,1.45
2022-08-02T20:46:43.846Z,1.02
2022-08-02T20:49:20.089Z,1.47
2022-08-02T20:51:51.540Z,1.10
2022-08-02T20:54:20.754Z,0.93
2022-08-02T20:56:47.887Z,0.80
2022-08-02T20:59:17.161Z,0.82
2022-08-02T21:01:57.409Z,0.90
2022-08-02T21:04:24.367Z,0.80
2022-08-02T21:06:51.279Z,1.20
2022-08-02T21:09:17.660Z,0.85
2022-08-02T21:11:50.811Z,0.88
2022-08-02T21:14:18.814Z,1.40
2022-08-02T21:16:50.630Z,0.95
2022-08-02T21:19:17.119Z,0.90
2022-08-02T21:21:43.486Z,0.98
2022-08-02T21:24:11.285Z,1.30
2022-08-02T21:26:38.998Z,1.00
2022-08-02T21:29:06.695Z,0.77
2022-08-02T21:31:36.475Z,1.02
2022-08-02T21:34:21.740Z,1.17
2022-08-02T21:36:48.701Z,1.20
2022-08-02T21:39:16.832Z,0.83
2022-08-02T21:41:46.568Z,1.05
2022-08-02T21:44:30.749Z,0.80
2022-08-02T21:46:57.457Z,0.80
2022-08-02T21:50:08.599Z,0.85
2022-08-02T21:52:14.465Z,0.80
2022-08-02T21:54:45.386Z,0.80
2022-08-02T21:57:16.017Z,0.70
2022-08-02T21:59:47.058Z,0.85
2022-08-02T22:02:18.286Z,0.70
2022-08-02T22:04:47.340Z,0.80
2022-08-02T22:07:15.821Z,0.68
2022-08-02T22:09:45.456Z,0.90
2022-08-02T22:12:17.935Z,0.73
2022-08-02T22:14:49.604Z,0.70
2022-08-02T22:17:20.229Z,0.70
2022-08-02T22:19:54.183Z,0.57
2022-08-02T22:22:28.232Z,0.60
2022-08-02T22:24:55.264Z,0.70
2022-08-02T22:27:23.024Z,0.90
2022-08-02T22:29:49.423Z,0.63
2022-08-02T22:32:35.804Z,0.68
2022-08-02T22:35:08.769Z,1.25
2022-08-02T22:38:14.544Z,0.88
2022-08-02T22:40:24.207Z,1.00
2022-08-02T22:42:50.621Z,0.70
2022-08-02T22:45:17.064Z,0.93
2022-08-02T22:47:51.070Z,0.63
2022-08-02T22:50:17.851Z,0.88
2022-08-02T22:52:50.212Z,0.70
2022-08-02T22:55:17.124Z,0.63
2022-08-02T22:57:56.437Z,0.60
2022-08-02T22:58:57.786Z,1.20
2022-08-02T23:00:24.903Z,1.00
2022-08-02T23:02:51.753Z,0.80
2022-08-02T23:05:18.509Z,0.70
2022-08-02T23:07:44.947Z,0.80
2022-08-02T23:10:11.301Z,1.60
2022-08-02T23:12:37.764Z,0.75
2022-08-02T23:15:04.629Z,0.93
2022-08-02T23:17:49.371Z,1.25
2022-08-02T23:20:19.449Z,0.80
2022-08-02T23:22:45.848Z,0.80
2022-08-02T23:25:12.227Z,0.70
2022-08-02T23:27:38.592Z,0.68
2022-08-02T23:30:06.078Z,0.65
2022-08-02T23:32:32.754Z,0.70
2022-08-02T23:34:59.341Z,0.70
2022-08-02T23:37:25.980Z,0.93
2022-08-02T23:39:52.496Z,0.95
2022-08-02T23:42:19.376Z,0.73
2022-08-02T23:44:45.996Z,0.40
2022-08-02T23:47:12.457Z,0.70
2022-08-02T23:49:38.915Z,0.50
2022-08-02T23:52:05.306Z,0.73
2022-08-02T23:54:31.769Z,1.15
2022-08-02T23:56:59.140Z,0.63
2022-08-02T23:59:25.599Z,0.85
